createdAt,value
2022-11-20T18:32:15.580Z,51.42
2022-11-20T18:42:32.666Z,51.65
2022-11-20T18:50:31.043Z,35.71
2022-11-20T18:55:34.143Z,34.95
2022-11-20T19:00:37.154Z,40.36
2022-11-20T19:05:40.470Z,46.99
2022-11-20T19:10:43.579Z,53.66
2022-11-20T19:15:46.683Z,59.31
2022-11-20T19:20:49.795Z,61.89
2022-11-20T19:25:53.008Z,54.29
2022-11-20T19:30:56.117Z,61.28
2022-11-20T19:36:09.153Z,59.92
2022-11-20T19:41:12.363Z,58.42
2022-11-20T19:46:20.638Z,62.75
2022-11-20T19:51:26.725Z,57.89
2022-11-20T19:56:31.632Z,62.44
2022-11-20T20:01:35.617Z,56.49
2022-11-20T20:06:40.199Z,60.44
2022-11-20T20:11:46.758Z,60.61
2022-11-20T20:16:49.793Z,58.52
2022-11-20T20:21:52.786Z,62.16
2022-11-20T20:26:58.305Z,55.51
2022-11-20T20:32:01.888Z,58.77
2022-11-20T20:37:05.513Z,61.15
2022-11-20T20:42:08.409Z,59.10
2022-11-20T20:47:11.412Z,63.07
2022-11-20T20:52:15.252Z,59.96
2022-11-20T20:57:18.346Z,62.13
2022-11-20T21:02:22.711Z,58.47
2022-11-20T21:07:26.235Z,63.55
2022-11-20T21:12:29.329Z,59.97
2022-11-20T21:17:32.428Z,62.76
2022-11-20T21:22:36.557Z,59.34
2022-11-20T21:27:39.706Z,59.31
2022-11-20T21:32:42.626Z,61.33
2022-11-20T21:37:45.576Z,60.03
2022-11-20T21:42:48.682Z,60.18
2022-11-20T21:47:52.407Z,59.19
2022-11-20T21:52:55.418Z,62.32
2022-11-20T21:57:58.318Z,58.54
2022-11-20T22:03:01.225Z,61.98
2022-11-20T22:08:04.330Z,59.05
2022-11-20T22:13:25.697Z,62.33
2022-11-20T22:18:28.781Z,59.38
2022-11-20T22:23:31.992Z,62.45
2022-11-20T22:28:36.183Z,59.21
2022-11-20T22:33:39.333Z,62.38
2022-11-20T22:38:42.745Z,57.61
2022-11-20T22:43:46.428Z,63.07
2022-11-20T22:48:50.706Z,59.55
2022-11-20T22:53:54.018Z,59.47
2022-11-20T22:58:57.129Z,64.30
2022-11-20T23:04:02.326Z,58.59
2022-11-20T23:09:06.519Z,63.46
2022-11-20T23:14:16.191Z,58.51
2022-11-20T23:19:19.398Z,62.68
2022-11-20T23:24:22.398Z,59.77
2022-11-20T23:29:25.598Z,60.37
2022-11-20T23:34:28.724Z,63.13
2022-11-20T23:39:31.851Z,60.25
2022-11-20T23:44:35.039Z,60.04
2022-11-20T23:49:38.045Z,63.66
2022-11-20T23:54:40.949Z,60.46
2022-11-20T23:59:43.856Z,62.39
